createdAt,value
2019-04-16T00:00:43.551Z,8.80
2019-04-16T00:05:52.490Z,9.13
2019-04-16T00:11:01.430Z,10.46
2019-04-16T00:16:13.006Z,12.62
2019-04-16T00:21:18.910Z,9.70
2019-04-16T00:26:27.849Z,11.73
2019-04-16T00:31:39.586Z,12.04
2019-04-16T00:36:38.599Z,10.23
2019-04-16T00:41:47.556Z,10.59
2019-04-16T00:46:56.693Z,9.29
2019-04-16T00:52:06.953Z,11.23
2019-04-16T00:57:17.774Z,12.55
2019-04-16T01:02:22.439Z,12.30
2019-04-16T01:07:31.409Z,11.91
2019-04-16T01:12:40.371Z,11.51
2019-04-16T01:17:49.335Z,12.95
2019-04-16T01:22:58.302Z,10.87
2019-04-16T01:28:07.223Z,10.52
2019-04-16T01:33:16.158Z,13.99
2019-04-16T01:38:27.841Z,12.85
2019-04-16T01:43:33.768Z,11.70
2019-04-16T01:48:43.030Z,15.84
2019-04-16T01:53:52.325Z,12.02
2019-04-16T01:59:04.604Z,11.05
2019-04-16T02:04:08.950Z,11.54
2019-04-16T02:09:22.712Z,12.05
2019-04-16T02:14:26.374Z,11.75
2019-04-16T02:19:35.299Z,12.21
2019-04-16T02:24:44.238Z,11.93
2019-04-16T02:29:53.836Z,12.69
2019-04-16T02:35:01.660Z,11.10
2019-04-16T02:40:16.662Z,14.24
2019-04-16T02:45:23.203Z,18.06
2019-04-16T02:50:31.905Z,14.19
2019-04-16T02:55:42.589Z,11.99
2019-04-16T03:00:49.057Z,14.95
2019-04-16T03:05:53.284Z,13.47
2019-04-16T03:11:02.199Z,12.95
2019-04-16T03:16:11.130Z,12.95
2019-04-16T03:21:20.189Z,12.28
2019-04-16T03:26:29.139Z,16.50
2019-04-16T03:31:38.075Z,11.27
2019-04-16T03:36:46.994Z,11.81
2019-04-16T03:41:56.825Z,13.61
2019-04-16T03:47:04.438Z,12.36
2019-04-16T03:52:13.387Z,12.10
2019-04-16T03:57:22.299Z,14.67
2019-04-16T04:02:31.238Z,12.82
2019-04-16T04:07:43.898Z,11.23
2019-04-16T04:12:48.676Z,14.00
2019-04-16T04:17:57.645Z,15.59
2019-04-16T04:23:06.631Z,14.33
2019-04-16T04:28:18.490Z,12.48
2019-04-16T04:33:24.083Z,13.86
2019-04-16T04:38:33.574Z,13.04
2019-04-16T04:43:41.544Z,14.35
2019-04-16T04:48:55.002Z,16.86
2019-04-16T04:53:58.916Z,17.88
2019-04-16T04:59:07.839Z,18.03
2019-04-16T05:04:20.380Z,12.70
2019-04-16T05:09:25.294Z,11.56
2019-04-16T05:14:34.554Z,11.83
2019-04-16T05:19:43.857Z,14.06
2019-04-16T05:24:51.939Z,14.22
2019-04-16T05:30:00.870Z,15.02
2019-04-16T05:35:10.782Z,12.57
2019-04-16T05:40:18.516Z,16.10
2019-04-16T05:45:27.205Z,13.51
2019-04-16T05:50:36.163Z,14.27
2019-04-16T05:55:49.670Z,14.34
2019-04-16T06:00:53.615Z,14.97
2019-04-16T06:06:02.550Z,14.62
2019-04-16T06:11:11.476Z,11.74
2019-04-16T06:16:24.333Z,17.98
2019-04-16T06:21:28.982Z,16.43
2019-04-16T06:26:38.958Z,15.53
2019-04-16T06:31:47.918Z,12.91
2019-04-16T06:36:56.851Z,17.10
2019-04-16T06:42:05.834Z,15.15
2019-04-16T06:47:14.778Z,16.59
2019-04-16T06:52:23.734Z,14.32
2019-04-16T06:57:32.722Z,17.90
2019-04-16T07:02:44.060Z,13.64
2019-04-16T07:07:50.142Z,16.71
2019-04-16T07:12:59.067Z,18.35
2019-04-16T07:18:08.058Z,19.38
2019-04-16T07:23:17.022Z,16.45
2019-04-16T07:28:26.781Z,17.12
2019-04-16T07:33:34.570Z,17.97
2019-04-16T07:38:43.522Z,17.22
2019-04-16T07:43:52.567Z,14.40
2019-04-16T07:49:01.427Z,16.24
2019-04-16T07:54:10.342Z,18.32
2019-04-16T07:59:19.318Z,15.92
2019-04-16T08:04:29.191Z,17.70
2019-04-16T08:09:36.758Z,18.42
2019-04-16T08:14:45.766Z,17.94
2019-04-16T08:19:55.532Z,17.85
2019-04-16T08:25:04.130Z,14.09
2019-04-16T08:30:12.005Z,15.59
2019-04-16T08:35:20.607Z,16.44
2019-04-16T08:40:29.684Z,18.20
2019-04-16T08:45:39.882Z,18.92
2019-04-16T08:50:49.311Z,17.70
2019-04-16T08:55:55.532Z,15.25
2019-04-16T09:01:04.526Z,17.56
2019-04-16T09:06:14.177Z,16.34
2019-04-16T09:11:23.625Z,18.53
2019-04-16T09:16:30.451Z,17.45
2019-04-16T09:21:43.409Z,19.18
2019-04-16T09:26:47.851Z,23.06
2019-04-16T09:31:56.919Z,16.14
2019-04-16T09:37:05.887Z,19.33
2019-04-16T09:42:14.883Z,19.05
2019-04-16T09:47:23.851Z,20.16
2019-04-16T09:52:32.771Z,17.86
2019-04-16T09:57:41.721Z,17.02
2019-04-16T10:03:01.711Z,17.77
2019-04-16T10:08:00.810Z,16.28
2019-04-16T10:13:09.771Z,16.85
2019-04-16T10:18:18.920Z,16.60
2019-04-16T10:23:27.852Z,16.10
2019-04-16T10:28:37.052Z,16.74
2019-04-16T10:33:45.281Z,14.10
2019-04-16T10:38:54.259Z,17.76
2019-04-16T10:44:03.197Z,18.16
2019-04-16T10:49:12.127Z,17.08
2019-04-16T10:54:21.127Z,21.31
2019-04-16T10:59:30.075Z,18.69
2019-04-16T11:04:42.966Z,15.42
2019-04-16T11:09:47.482Z,16.15
2019-04-16T11:14:56.509Z,18.78
2019-04-16T11:20:06.194Z,16.74
2019-04-16T11:25:13.875Z,21.99
2019-04-16T11:30:22.834Z,20.67
2019-04-16T11:35:31.775Z,16.05
2019-04-16T11:40:41.238Z,16.99
2019-04-16T11:45:49.210Z,16.69
2019-04-16T11:50:58.142Z,18.20
2019-04-16T11:56:07.128Z,21.02
2019-04-16T12:01:16.108Z,16.67
2019-04-16T12:06:28.426Z,20.11
2019-04-16T12:11:33.605Z,18.84
2019-04-16T12:16:42.553Z,19.01
2019-04-16T12:21:51.532Z,16.60
2019-04-16T12:27:00.555Z,18.85
2019-04-16T12:32:09.484Z,17.11
2019-04-16T12:37:18.420Z,17.41
2019-04-16T12:42:27.574Z,17.45
2019-04-16T12:47:36.516Z,15.90
2019-04-16T12:52:45.530Z,16.77
2019-04-16T12:57:54.434Z,16.45
2019-04-16T13:03:03.410Z,15.53
2019-04-16T13:08:12.346Z,17.11
2019-04-16T13:13:21.283Z,18.17
2019-04-16T13:18:30.260Z,16.75
2019-04-16T13:23:39.245Z,17.46
2019-04-16T13:28:48.239Z,18.20
2019-04-16T13:33:57.198Z,18.02
2019-04-16T13:39:06.190Z,15.63
2019-04-16T13:44:17.073Z,14.38
2019-04-16T13:49:24.490Z,16.32
2019-04-16T13:54:34.366Z,17.08
2019-04-16T13:59:40.586Z,17.35
2019-04-16T14:04:49.985Z,18.97
2019-04-16T14:09:59.204Z,22.73
2019-04-16T14:15:07.958Z,16.49
2019-04-16T14:20:17.090Z,16.70
2019-04-16T14:25:26.019Z,15.44
2019-04-16T14:30:34.966Z,13.09
2019-04-16T14:35:43.879Z,23.51
2019-04-16T14:40:52.851Z,13.70
2019-04-16T14:46:01.835Z,13.40
2019-04-16T14:51:11.880Z,17.11
2019-04-16T14:56:10.799Z,18.84
2019-04-16T15:01:19.739Z,16.87
2019-04-16T15:06:28.738Z,15.12
2019-04-16T15:11:37.674Z,13.34
2019-04-16T15:16:46.618Z,10.74
2019-04-16T15:21:55.550Z,12.71
2019-04-16T15:27:04.511Z,14.17
2019-04-16T15:32:13.450Z,12.49
2019-04-16T15:37:22.760Z,13.71
2019-04-16T15:42:30.943Z,14.74
2019-04-16T15:47:43.002Z,15.76
2019-04-16T15:52:48.465Z,15.02
2019-04-16T15:57:57.551Z,14.80
2019-04-16T16:03:06.472Z,12.36
2019-04-16T16:08:15.423Z,14.26
2019-04-16T16:13:26.516Z,11.03
2019-04-16T16:18:35.731Z,12.56
2019-04-16T16:23:41.305Z,12.58
2019-04-16T16:28:50.334Z,13.77
2019-04-16T16:33:59.263Z,15.40
2019-04-16T16:39:08.296Z,14.92
2019-04-16T16:44:17.213Z,12.76
2019-04-16T16:49:26.182Z,12.12
2019-04-16T16:54:35.145Z,11.85
2019-04-16T16:59:44.090Z,8.38
2019-04-16T17:04:53.046Z,12.17
2019-04-16T17:10:01.968Z,9.69
2019-04-16T17:15:11.003Z,8.98
2019-04-16T17:20:19.938Z,8.83
2019-04-16T17:25:36.120Z,9.46
2019-04-16T17:30:37.475Z,11.03
2019-04-16T17:35:47.126Z,13.45
2019-04-16T17:40:58.995Z,10.30
2019-04-16T17:46:05.451Z,8.57
2019-04-16T17:51:04.423Z,9.78
2019-04-16T17:56:13.388Z,10.89
2019-04-16T18:01:22.371Z,10.08
2019-04-16T18:06:31.354Z,10.80
2019-04-16T18:11:41.084Z,8.85
2019-04-16T18:16:49.978Z,10.93
2019-04-16T18:21:57.669Z,7.69
2019-04-16T18:27:06.378Z,9.27
2019-04-16T18:32:15.323Z,7.59
2019-04-16T18:37:24.279Z,6.12
2019-04-16T18:42:33.226Z,7.85
2019-04-16T18:47:42.209Z,8.06
2019-04-16T18:52:51.175Z,7.77
2019-04-16T18:58:00.181Z,6.17
2019-04-16T19:03:14.661Z,7.43
2019-04-16T19:08:17.814Z,6.14
2019-04-16T19:13:26.749Z,6.42
2019-04-16T19:18:35.847Z,9.42
2019-04-16T19:23:44.787Z,6.35
2019-04-16T19:28:53.770Z,6.56
2019-04-16T19:34:17.891Z,6.31
2019-04-16T19:39:15.096Z,9.12
2019-04-16T19:44:23.088Z,5.93
2019-04-16T19:54:37.396Z,6.07
2019-04-16T19:59:47.256Z,7.37
2019-04-16T20:05:15.265Z,6.75
2019-04-16T20:10:02.755Z,9.38
2019-04-16T20:15:10.513Z,6.41
2019-04-16T20:30:14.235Z,7.92
2019-04-16T20:35:23.162Z,7.46
2019-04-16T20:40:32.087Z,8.58
2019-04-16T20:45:41.055Z,10.27
2019-04-16T20:50:53.032Z,11.95
2019-04-16T20:55:58.674Z,7.74
2019-04-16T21:01:34.132Z,9.36
2019-04-16T21:06:16.110Z,7.71
2019-04-16T21:11:25.063Z,8.87
2019-04-16T21:16:34.573Z,10.97
2019-04-16T21:21:42.526Z,8.87
2019-04-16T21:26:51.870Z,9.10
2019-04-16T21:32:00.551Z,9.75
2019-04-16T21:37:10.577Z,9.23
2019-04-16T21:42:18.010Z,10.44
2019-04-16T21:47:26.983Z,10.84
2019-04-16T21:52:36.132Z,8.30
2019-04-16T21:57:46.066Z,8.07
2019-04-16T22:02:53.747Z,7.82
2019-04-16T22:08:02.688Z,6.88
2019-04-16T22:13:11.662Z,9.02
2019-04-16T22:18:20.630Z,7.70
2019-04-16T22:28:37.297Z,7.58
2019-04-16T22:33:46.247Z,9.83
2019-04-16T22:38:55.202Z,7.68
2019-04-16T22:44:04.177Z,7.76
2019-04-16T22:49:13.105Z,5.85
2019-04-16T22:54:22.117Z,5.70
2019-04-16T22:59:31.093Z,5.76
2019-04-16T23:04:40.542Z,4.77
2019-04-16T23:09:49.510Z,5.49
2019-04-16T23:14:58.513Z,4.47
2019-04-16T23:20:07.590Z,4.23
2019-04-16T23:25:16.478Z,4.93
2019-04-16T23:30:25.458Z,3.50
2019-04-16T23:35:34.447Z,4.44
2019-04-16T23:40:43.917Z,4.47
2019-04-16T23:45:51.899Z,4.80
2019-04-16T23:51:00.902Z,4.54
2019-04-16T23:56:09.847Z,4.55
